createdAt,value
2022-09-09T09:46:30.380Z,1.47
2022-09-09T09:49:58.591Z,1.43
2022-09-09T09:53:22.922Z,1.47
2022-09-09T09:56:34.412Z,1.90
2022-09-09T09:59:47.928Z,1.57
2022-09-09T10:03:21.991Z,1.50
2022-09-09T10:06:42.163Z,1.60
2022-09-09T10:09:58.435Z,1.37
2022-09-09T10:13:24.912Z,1.70
2022-09-09T10:16:49.539Z,1.47
2022-09-09T10:20:20.335Z,1.83
2022-09-09T10:23:46.715Z,1.10
2022-09-09T10:27:04.019Z,1.30
2022-09-09T10:30:18.718Z,2.00
2022-09-09T10:33:35.059Z,1.40
2022-09-09T10:36:52.409Z,1.60
2022-09-09T10:40:19.230Z,1.50
2022-09-09T10:43:44.932Z,1.40
2022-09-09T10:47:08.039Z,1.30
2022-09-09T10:51:00.006Z,1.63
2022-09-09T10:54:19.913Z,1.40
2022-09-09T10:57:39.619Z,1.30
2022-09-09T11:00:58.390Z,1.37
2022-09-09T11:04:19.896Z,1.70
2022-09-09T11:07:37.337Z,1.10
2022-09-09T11:10:56.678Z,1.43
2022-09-09T11:14:17.160Z,1.27
2022-09-09T11:17:32.037Z,1.40
2022-09-09T11:20:42.406Z,1.23
2022-09-09T11:23:59.954Z,1.10
2022-09-09T11:27:17.172Z,1.00
2022-09-09T11:30:55.435Z,1.23
2022-09-09T11:34:23.282Z,0.90
2022-09-09T11:38:02.872Z,1.00
2022-09-09T11:41:12.686Z,1.07
2022-09-09T11:44:30.995Z,1.30
2022-09-09T11:47:40.747Z,0.90
2022-09-09T11:51:01.216Z,1.40
2022-09-09T11:54:33.411Z,1.47
2022-09-09T11:57:48.907Z,1.20
2022-09-09T12:01:00.926Z,1.10
2022-09-09T12:04:22.220Z,0.80
2022-09-09T12:07:37.933Z,0.80
2022-09-09T12:11:00.538Z,0.80
2022-09-09T12:14:22.117Z,0.67
2022-09-09T12:17:39.385Z,0.60
2022-09-09T12:20:59.234Z,0.70
2022-09-09T12:24:12.124Z,0.50
2022-09-09T12:27:28.670Z,0.43
2022-09-09T12:30:48.252Z,0.67
2022-09-09T12:34:12.106Z,0.60
2022-09-09T12:37:31.456Z,0.50
2022-09-09T12:40:41.676Z,0.50
2022-09-09T12:43:51.992Z,0.70
2022-09-09T12:47:05.198Z,0.70
2022-09-09T12:50:26.676Z,0.80
2022-09-09T12:53:40.493Z,0.77
2022-09-09T12:56:53.340Z,0.83
2022-09-09T13:00:11.355Z,0.70
2022-09-09T13:03:22.803Z,1.20
2022-09-09T13:06:35.181Z,1.10
2022-09-09T13:09:46.038Z,0.93
2022-09-09T13:12:55.918Z,0.90
2022-09-09T13:16:09.437Z,1.17
2022-09-09T13:19:19.393Z,0.80
2022-09-09T13:22:34.028Z,0.70
2022-09-09T13:25:54.643Z,0.93
2022-09-09T13:29:22.980Z,0.90
2022-09-09T13:32:35.133Z,0.97
2022-09-09T13:35:50.187Z,1.20
2022-09-09T13:39:03.716Z,1.00
2022-09-09T13:42:26.453Z,1.23
2022-09-09T13:45:39.605Z,0.80
2022-09-09T13:49:03.606Z,0.80
2022-09-09T13:52:15.297Z,1.10
2022-09-09T13:55:28.407Z,1.00
2022-09-09T13:58:38.143Z,1.27
2022-09-09T14:01:49.976Z,1.20
2022-09-09T14:05:01.770Z,1.30
2022-09-09T14:08:22.247Z,0.83
2022-09-09T14:11:33.322Z,1.07
2022-09-09T14:14:46.469Z,1.10
2022-09-09T14:17:56.088Z,1.03
2022-09-09T14:21:05.852Z,1.30
2022-09-09T14:24:15.477Z,0.90
2022-09-09T14:27:29.619Z,1.33
2022-09-09T14:30:41.311Z,1.17
2022-09-09T14:33:51.701Z,1.17
2022-09-09T14:37:03.693Z,1.37
2022-09-09T14:40:13.508Z,1.30
2022-09-09T14:43:24.528Z,0.93
2022-09-09T14:46:34.463Z,0.80
2022-09-09T14:49:46.566Z,1.03
2022-09-09T14:52:56.941Z,0.80
2022-09-09T14:56:09.338Z,0.77
2022-09-09T14:59:23.250Z,0.77
2022-09-09T15:02:40.243Z,0.87
2022-09-09T15:05:50.095Z,0.70
2022-09-09T15:08:59.870Z,0.80
2022-09-09T15:12:09.813Z,1.07
2022-09-09T15:15:23.352Z,2.00
2022-09-09T15:18:36.385Z,0.90
2022-09-09T15:21:46.286Z,0.70
2022-09-09T15:24:55.960Z,0.90
2022-09-09T15:28:05.679Z,1.20
2022-09-09T15:31:19.550Z,1.10
2022-09-09T15:34:29.266Z,1.20
2022-09-09T15:37:38.934Z,0.90
2022-09-09T15:40:56.346Z,0.90
2022-09-09T15:44:07.285Z,1.07
2022-09-09T15:47:18.833Z,0.90
2022-09-09T15:50:29.404Z,1.00
2022-09-09T15:53:40.062Z,1.00
2022-09-09T15:56:55.858Z,1.20
2022-09-09T16:00:09.717Z,1.10
2022-09-09T16:03:22.372Z,0.93
2022-09-09T16:06:32.210Z,1.00
2022-09-09T16:09:44.348Z,1.10
2022-09-09T16:12:54.490Z,1.10
2022-09-09T16:16:05.654Z,1.20
2022-09-09T16:19:17.857Z,1.00
2022-09-09T16:22:30.690Z,2.47
2022-09-09T16:25:40.544Z,1.33
2022-09-09T16:28:50.893Z,1.03
2022-09-09T16:32:03.946Z,1.60
2022-09-09T16:35:20.445Z,1.40
2022-09-09T16:38:31.254Z,1.30
2022-09-09T16:41:41.739Z,0.70
2022-09-09T16:44:51.814Z,1.47
2022-09-09T16:48:02.025Z,1.00
2022-09-09T16:51:16.425Z,1.00
2022-09-09T16:54:27.853Z,0.93
2022-09-09T16:57:39.605Z,0.90
2022-09-09T17:00:49.904Z,0.80
2022-09-09T17:04:01.780Z,1.00
2022-09-09T17:07:15.524Z,0.90
2022-09-09T17:10:26.533Z,1.00
2022-09-09T17:13:36.448Z,0.80
2022-09-09T17:16:49.048Z,0.73
2022-09-09T17:20:03.375Z,0.90
2022-09-09T17:23:16.221Z,0.83
2022-09-09T17:26:28.596Z,1.23
2022-09-09T17:29:38.527Z,0.90
2022-09-09T17:32:48.225Z,0.80
2022-09-09T17:35:59.334Z,0.80
2022-09-09T17:39:10.304Z,0.70
2022-09-09T17:42:19.902Z,0.80
2022-09-09T17:45:31.226Z,0.80
2022-09-09T17:48:44.071Z,0.80
2022-09-09T17:51:54.845Z,0.83
2022-09-09T17:55:06.519Z,1.07
2022-09-09T17:58:18.122Z,0.80
2022-09-09T18:01:31.391Z,0.70
2022-09-09T18:04:50.350Z,0.60
2022-09-09T18:07:59.943Z,0.60
2022-09-09T18:11:11.033Z,0.70
2022-09-09T18:14:24.122Z,0.60
2022-09-09T18:17:33.911Z,0.90
2022-09-09T18:20:44.216Z,1.30
2022-09-09T18:23:57.024Z,0.90
2022-09-09T18:27:11.102Z,0.80
2022-09-09T18:30:21.017Z,0.93
2022-09-09T18:33:30.992Z,1.00
2022-09-09T18:36:43.403Z,1.10
2022-09-09T18:39:53.061Z,1.10
2022-09-09T18:43:04.063Z,1.00
2022-09-09T18:46:13.808Z,1.33
2022-09-09T18:49:25.437Z,1.20
2022-09-09T18:52:35.105Z,1.40
2022-09-09T18:55:44.780Z,0.90
2022-09-09T18:58:58.803Z,1.13
2022-09-09T19:02:12.050Z,1.00
2022-09-09T19:05:21.801Z,2.13
2022-09-09T19:08:31.579Z,1.50
2022-09-09T19:11:41.804Z,2.10
2022-09-09T19:14:55.676Z,1.53
2022-09-09T19:18:06.018Z,1.50
2022-09-09T19:21:18.717Z,1.50
2022-09-09T19:24:30.238Z,1.17
2022-09-09T19:27:39.931Z,1.03
2022-09-09T19:30:54.223Z,1.17
2022-09-09T19:34:03.866Z,1.10
2022-09-09T19:37:18.169Z,1.57
2022-09-09T19:40:30.510Z,1.20
2022-09-09T19:43:40.580Z,1.10
2022-09-09T19:46:55.386Z,1.23
2022-09-09T19:50:05.777Z,1.30
2022-09-09T19:53:15.399Z,1.13
2022-09-09T19:56:31.662Z,1.50
2022-09-09T19:59:43.455Z,1.13
2022-09-09T20:03:17.521Z,1.57
2022-09-09T20:06:28.179Z,1.13
2022-09-09T20:09:40.465Z,1.33
2022-09-09T20:12:50.607Z,1.20
2022-09-09T20:16:01.802Z,0.90
2022-09-09T20:19:16.110Z,0.93
2022-09-09T20:22:25.773Z,1.00
2022-09-09T20:25:36.942Z,0.93
2022-09-09T20:28:46.945Z,1.20
2022-09-09T20:31:58.919Z,1.00
2022-09-09T20:35:10.146Z,1.30
2022-09-09T20:38:19.731Z,1.90
2022-09-09T20:41:34.992Z,1.40
2022-09-09T20:44:44.673Z,1.80
2022-09-09T20:47:56.242Z,1.13
2022-09-09T20:51:10.942Z,1.27
2022-09-09T20:54:25.641Z,1.50
2022-09-09T20:57:39.605Z,1.47
2022-09-09T21:00:49.181Z,2.17
2022-09-09T21:04:00.209Z,1.67
2022-09-09T21:07:16.386Z,1.60
2022-09-09T21:10:26.253Z,1.77
2022-09-09T21:13:37.957Z,1.77
2022-09-09T21:16:50.748Z,1.97
2022-09-09T21:20:03.206Z,1.80
2022-09-09T21:23:15.754Z,1.90
2022-09-09T21:26:28.488Z,1.50
